Time;durP1;ratioP1;P1;durP2;ratioP2;P2;SDS_P1;SDS_P2;PMS_P1;PMS_P2;Temp;Humidity;BMP_temperature;BMP_pressure;BME280_temperature;BME280_humidity;BME280_pressure;Samples;Min_cycle;Max_cycle;Signal;HPM_P1;HPM_P2
2022/03/28 00:00:24;;;;;;;1.27;0.60;;;;;;;;;;8269469;28;20037;-61
2022/03/28 00:04:25;;;;;;;2.38;0.85;;;;;;;;;;8271139;28;20049;-60
2022/03/28 00:08:26;;;;;;;2.30;0.80;;;;;;;;;;8304204;28;20026;-60
2022/03/28 00:12:27;;;;;;;2.83;0.93;;;;;;;;;;8297271;28;20037;-61
2022/03/28 00:16:27;;;;;;;3.33;1.00;;;;;;;;;;8299184;28;20029;-60
2022/03/28 00:20:28;;;;;;;4.37;0.80;;;;;;;;;;8294384;28;20038;-60
2022/03/28 00:24:29;;;;;;;2.60;0.70;;;;;;;;;;8289507;28;20057;-60
2022/03/28 00:28:30;;;;;;;5.27;0.60;;;;;;;;;;8325076;28;20058;-60
2022/03/28 00:32:32;;;;;;;5.47;0.80;;;;;;;;;;8315736;28;20036;-60
2022/03/28 00:36:32;;;;;;;3.13;0.70;;;;;;;;;;8333151;28;20448;-60
2022/03/28 00:40:34;;;;;;;1.27;0.50;;;;;;;;;;8321944;28;20018;-60
2022/03/28 00:44:35;;;;;;;2.67;0.70;;;;;;;;;;8319315;28;20096;-60
2022/03/28 00:48:38;;;;;;;3.10;0.70;;;;;;;;;;8306569;28;20476;-60
2022/03/28 00:52:40;;;;;;;0.40;0.38;;;;;;;;;;8314864;28;20033;-60
2022/03/28 00:56:42;;;;;;;3.25;0.50;;;;;;;;;;8335299;28;20025;-60
2022/03/28 01:00:44;;;;;;;1.77;0.60;;;;;;;;;;8315023;28;20091;-60
2022/03/28 01:04:45;;;;;;;2.63;0.70;;;;;;;;;;8295383;28;20548;-60
2022/03/28 01:08:46;;;;;;;3.50;0.70;;;;;;;;;;8312827;28;20037;-60
2022/03/28 01:12:47;;;;;;;2.47;0.57;;;;;;;;;;8312773;28;20052;-60
2022/03/28 01:21:07;;;;;;;0.80;0.50;;;;;;;;;;8300863;28;20499;-60
2022/03/28 01:25:09;;;;;;;1.20;0.37;;;;;;;;;;8300561;28;20029;-60
2022/03/28 01:29:10;;;;;;;2.45;0.50;;;;;;;;;;8345499;28;20053;-60
2022/03/28 01:33:10;;;;;;;2.40;0.63;;;;;;;;;;8323922;28;20079;-60
2022/03/28 01:37:12;;;;;;;3.37;0.37;;;;;;;;;;8300261;28;20037;-60
2022/03/28 01:41:13;;;;;;;1.13;0.32;;;;;;;;;;8330339;28;20030;-60
2022/03/28 01:45:15;;;;;;;0.80;0.30;;;;;;;;;;8311323;28;20029;-60
2022/03/28 01:49:16;;;;;;;0.65;0.30;;;;;;;;;;8330475;28;20065;-60
2022/03/28 01:53:17;;;;;;;;;;;;;;;;;;8337445;28;20408;-60
2022/03/28 01:57:18;;;;;;;0.38;0.10;;;;;;;;;;8313347;28;19905;-60
2022/03/28 02:01:19;;;;;;;1.43;0.27;;;;;;;;;;8330761;28;20035;-60
2022/03/28 02:05:20;;;;;;;0.43;0.20;;;;;;;;;;8315527;28;20030;-61
2022/03/28 02:09:21;;;;;;;0.97;0.33;;;;;;;;;;8299996;28;20034;-60
2022/03/28 02:13:22;;;;;;;2.80;0.60;;;;;;;;;;8328953;28;20029;-60
2022/03/28 02:17:23;;;;;;;1.60;0.50;;;;;;;;;;8309367;28;20030;-60
2022/03/28 02:21:24;;;;;;;1.50;0.60;;;;;;;;;;8300028;28;20497;-60
2022/03/28 02:25:25;;;;;;;0.40;0.40;;;;;;;;;;8299123;28;20038;-60
2022/03/28 02:29:26;;;;;;;1.57;0.80;;;;;;;;;;8297325;28;20057;-60
2022/03/28 02:33:27;;;;;;;0.67;0.67;;;;;;;;;;8327746;28;20029;-60
2022/03/28 02:37:28;;;;;;;0.70;0.50;;;;;;;;;;8310242;28;20325;-60
2022/03/28 02:41:30;;;;;;;0.80;0.43;;;;;;;;;;8316250;28;20504;-60
2022/03/28 02:45:32;;;;;;;2.05;0.50;;;;;;;;;;8304115;28;20025;-60
2022/03/28 02:49:33;;;;;;;1.70;0.52;;;;;;;;;;8293656;28;20054;-60
2022/03/28 02:53:34;;;;;;;0.57;0.50;;;;;;;;;;8305718;28;20408;-60
2022/03/28 02:57:35;;;;;;;3.33;0.90;;;;;;;;;;8305547;28;20042;-60
2022/03/28 03:01:36;;;;;;;1.80;0.67;;;;;;;;;;8328576;28;20034;-60
2022/03/28 03:05:37;;;;;;;2.97;0.70;;;;;;;;;;8328382;28;20091;-60
2022/03/28 03:09:38;;;;;;;2.00;0.70;;;;;;;;;;8296225;28;20473;-60
2022/03/28 03:13:39;;;;;;;3.20;0.80;;;;;;;;;;8307683;28;20392;-60
2022/03/28 03:17:39;;;;;;;1.73;0.70;;;;;;;;;;8327234;28;20167;-60
2022/03/28 03:21:40;;;;;;;2.50;0.87;;;;;;;;;;8331914;28;20029;-60
2022/03/28 03:25:41;;;;;;;1.70;0.80;;;;;;;;;;8328690;28;20033;-60
2022/03/28 03:29:42;;;;;;;2.53;0.70;;;;;;;;;;8298346;28;20053;-60
2022/03/28 03:33:43;;;;;;;3.67;0.80;;;;;;;;;;8306479;28;20381;-60
2022/03/28 03:37:44;;;;;;;2.07;0.90;;;;;;;;;;8308107;28;20126;-61
2022/03/28 03:41:45;;;;;;;0.60;0.50;;;;;;;;;;8298869;28;20030;-60
2022/03/28 03:45:46;;;;;;;3.43;0.60;;;;;;;;;;8324546;28;20029;-60
2022/03/28 03:49:47;;;;;;;1.50;0.50;;;;;;;;;;8321190;28;20037;-60
2022/03/28 03:53:48;;;;;;;4.30;0.50;;;;;;;;;;8311198;28;20036;-61
2022/03/28 03:57:49;;;;;;;1.20;0.60;;;;;;;;;;8316813;28;20044;-62
2022/03/28 04:01:50;;;;;;;1.83;0.67;;;;;;;;;;8348784;28;20029;-60
2022/03/28 04:05:51;;;;;;;4.80;0.70;;;;;;;;;;8314893;28;20026;-61
2022/03/28 04:09:52;;;;;;;3.27;0.63;;;;;;;;;;8286377;28;20089;-60
2022/03/28 04:13:53;;;;;;;2.07;0.67;;;;;;;;;;8302278;28;20038;-60
2022/03/28 04:17:54;;;;;;;1.27;0.80;;;;;;;;;;8319670;28;20034;-60
2022/03/28 04:21:55;;;;;;;0.95;0.52;;;;;;;;;;8329622;28;20479;-60
2022/03/28 04:25:56;;;;;;;3.20;0.60;;;;;;;;;;8328709;28;20050;-61
2022/03/28 04:29:57;;;;;;;3.33;0.90;;;;;;;;;;8334647;28;20068;-60
2022/03/28 04:33:58;;;;;;;0.93;0.77;;;;;;;;;;8311304;28;20033;-60
2022/03/28 04:38:00;;;;;;;5.37;0.70;;;;;;;;;;8325490;28;20464;-60
2022/03/28 04:42:01;;;;;;;4.70;0.90;;;;;;;;;;8332582;28;20111;-60
2022/03/28 04:46:02;;;;;;;1.80;0.60;;;;;;;;;;8303814;28;20026;-60
2022/03/28 04:50:04;;;;;;;3.47;0.80;;;;;;;;;;8344308;28;20065;-61
2022/03/28 04:54:05;;;;;;;7.95;0.57;;;;;;;;;;8335168;28;20480;-59
2022/03/28 04:58:06;;;;;;;0.97;0.60;;;;;;;;;;8304769;28;20022;-60
2022/03/28 05:02:07;;;;;;;2.70;0.60;;;;;;;;;;8326290;28;20510;-60
2022/03/28 05:06:08;;;;;;;4.50;0.60;;;;;;;;;;8310594;28;20087;-60
2022/03/28 05:10:09;;;;;;;2.03;0.70;;;;;;;;;;8326681;28;20460;-60
2022/03/28 05:14:10;;;;;;;1.85;0.50;;;;;;;;;;8302027;28;20029;-60
2022/03/28 05:18:14;;;;;;;2.00;0.75;;;;;;;;;;8303719;28;20028;-60
2022/03/28 05:22:15;;;;;;;4.78;0.63;;;;;;;;;;8311003;28;20026;-60
2022/03/28 05:26:16;;;;;;;10.07;1.03;;;;;;;;;;8313679;28;20488;-60
2022/03/28 05:30:17;;;;;;;0.60;0.60;;;;;;;;;;8307989;28;20057;-60
2022/03/28 05:34:18;;;;;;;2.30;0.80;;;;;;;;;;8313746;28;20036;-60
2022/03/28 05:38:19;;;;;;;3.73;1.07;;;;;;;;;;8300433;28;20105;-60
2022/03/28 05:42:20;;;;;;;4.17;0.97;;;;;;;;;;8300006;28;20034;-60
2022/03/28 05:46:21;;;;;;;3.27;1.10;;;;;;;;;;8299678;28;20287;-62
2022/03/28 05:50:22;;;;;;;5.07;1.20;;;;;;;;;;8316322;28;20357;-60
2022/03/28 05:54:23;;;;;;;2.53;1.43;;;;;;;;;;8304272;28;20298;-60
2022/03/28 05:58:24;;;;;;;5.47;1.30;;;;;;;;;;8306059;28;20463;-62
2022/03/28 06:02:25;;;;;;;1.50;1.10;;;;;;;;;;8311146;28;20063;-60
2022/03/28 06:06:26;;;;;;;4.23;1.30;;;;;;;;;;8315391;28;20378;-59
2022/03/28 06:10:27;;;;;;;4.30;1.30;;;;;;;;;;8324959;28;20025;-65
2022/03/28 06:14:28;;;;;;;3.77;1.43;;;;;;;;;;8299439;28;20069;-60
2022/03/28 06:18:29;;;;;;;2.77;1.70;;;;;;;;;;8322664;28;20038;-60
2022/03/28 06:22:30;;;;;;;3.93;1.90;;;;;;;;;;8299759;28;20453;-59
2022/03/28 06:26:31;;;;;;;5.67;2.03;;;;;;;;;;8313493;28;20073;-60
2022/03/28 06:30:32;;;;;;;3.20;1.98;;;;;;;;;;8311544;28;20421;-61
2022/03/28 06:34:33;;;;;;;4.88;2.28;;;;;;;;;;8299980;28;20041;-61
2022/03/28 06:38:34;;;;;;;4.83;2.47;;;;;;;;;;8298099;28;20488;-60
2022/03/28 06:42:35;;;;;;;3.37;2.40;;;;;;;;;;8299737;28;20080;-60
2022/03/28 06:46:36;;;;;;;3.47;2.00;;;;;;;;;;8316401;28;20146;-60
2022/03/28 06:50:37;;;;;;;6.27;2.10;;;;;;;;;;8325137;28;20033;-60
2022/03/28 06:54:38;;;;;;;3.13;2.43;;;;;;;;;;8329465;28;20030;-61
2022/03/28 06:58:39;;;;;;;4.23;2.90;;;;;;;;;;8307675;28;20048;-61
2022/03/28 07:02:46;;;;;;;6.73;3.30;;;;;;;;;;8299267;28;20030;-61
2022/03/28 07:06:47;;;;;;;3.40;2.88;;;;;;;;;;8298019;28;20041;-61
2022/03/28 07:10:48;;;;;;;12.07;3.10;;;;;;;;;;8299430;28;20030;-62
2022/03/28 07:14:49;;;;;;;7.67;3.37;;;;;;;;;;8299307;28;20022;-61
2022/03/28 07:18:50;;;;;;;5.70;3.30;;;;;;;;;;8298143;28;20065;-61
2022/03/28 07:22:52;;;;;;;4.97;3.10;;;;;;;;;;8297865;28;20049;-60
2022/03/28 07:26:53;;;;;;;4.57;2.80;;;;;;;;;;8317343;28;20787;-60
2022/03/28 07:35:17;;;;;;;4.68;2.95;;;;;;;;;;8305161;28;19951;-60
2022/03/28 07:39:21;;;;;;;4.75;3.20;;;;;;;;;;8305034;28;20465;-60
2022/03/28 07:43:22;;;;;;;5.95;4.13;;;;;;;;;;8320038;28;20030;-61
2022/03/28 07:47:25;;;;;;;5.73;3.63;;;;;;;;;;8304775;28;20477;-60
2022/03/28 07:51:26;;;;;;;6.20;3.78;;;;;;;;;;8319814;28;20022;-60
2022/03/28 07:55:28;;;;;;;5.43;3.70;;;;;;;;;;8304731;28;20065;-60
2022/03/28 07:59:29;;;;;;;6.45;3.78;;;;;;;;;;8319508;28;20462;-60
2022/03/28 08:03:30;;;;;;;6.53;4.35;;;;;;;;;;8319471;28;20018;-60
2022/03/28 08:12:10;;;;;;;5.70;4.05;;;;;;;;;;8310091;28;20048;-60
2022/03/28 08:16:12;;;;;;;5.72;3.60;;;;;;;;;;8324009;28;20029;-60
2022/03/28 08:20:14;;;;;;;8.20;3.72;;;;;;;;;;8318697;28;20120;-60
2022/03/28 08:24:15;;;;;;;7.00;4.00;;;;;;;;;;8298835;28;20031;-62
2022/03/28 08:28:16;;;;;;;6.07;3.90;;;;;;;;;;8327318;28;20049;-61
2022/03/28 08:32:17;;;;;;;5.32;4.05;;;;;;;;;;8329172;28;20117;-60
2022/03/28 08:36:17;;;;;;;4.60;3.87;;;;;;;;;;8299908;28;20499;-60
2022/03/28 08:40:18;;;;;;;7.20;4.00;;;;;;;;;;8302523;28;20465;-60
2022/03/28 08:44:20;;;;;;;8.07;4.60;;;;;;;;;;8308732;28;20057;-60
2022/03/28 08:48:21;;;;;;;;;;;;;;;;;;8302584;28;20484;-60
2022/03/28 08:52:24;;;;;;;6.32;4.95;;;;;;;;;;8306037;28;20051;-61
2022/03/28 08:56:26;;;;;;;7.45;5.63;;;;;;;;;;8347155;28;20136;-60
2022/03/28 09:00:27;;;;;;;11.57;5.82;;;;;;;;;;8314046;28;20036;-61
2022/03/28 09:04:28;;;;;;;8.13;5.57;;;;;;;;;;8335454;28;20028;-60
2022/03/28 09:08:37;;;;;;;9.20;6.33;;;;;;;;;;8293907;28;20030;-61
2022/03/28 09:12:56;;;;;;;12.23;6.93;;;;;;;;;;8302839;28;20029;-60
2022/03/28 09:16:58;;;;;;;19.75;8.68;;;;;;;;;;8325201;28;20033;-60
2022/03/28 09:21:04;;;;;;;15.68;9.00;;;;;;;;;;8305474;28;20030;-60
2022/03/28 09:25:06;;;;;;;13.57;8.65;;;;;;;;;;8304039;28;20522;-60
2022/03/28 09:29:07;;;;;;;14.20;8.18;;;;;;;;;;8322481;28;20193;-61
2022/03/28 09:33:08;;;;;;;12.13;8.83;;;;;;;;;;8301248;28;20484;-60
2022/03/28 09:37:11;;;;;;;16.50;8.30;;;;;;;;;;8300380;28;20113;-60
2022/03/28 09:41:12;;;;;;;16.75;8.75;;;;;;;;;;8315383;28;20104;-61
2022/03/28 09:45:21;;;;;;;13.90;8.53;;;;;;;;;;8319268;28;20029;-60
2022/03/28 09:49:25;;;;;;;14.60;8.50;;;;;;;;;;8291708;28;20046;-60
2022/03/28 09:53:31;;;;;;;20.80;9.15;;;;;;;;;;8310731;28;20033;-60
2022/03/28 09:57:36;;;;;;;14.65;8.18;;;;;;;;;;8329006;28;20033;-61
2022/03/28 10:01:40;;;;;;;23.40;8.18;;;;;;;;;;8317603;28;20472;-60
2022/03/28 10:05:41;;;;;;;12.38;7.78;;;;;;;;;;8299148;28;20079;-60
2022/03/28 10:09:42;;;;;;;16.73;8.40;;;;;;;;;;8311375;28;20080;-61
2022/03/28 10:13:43;;;;;;;13.52;8.68;;;;;;;;;;8299599;28;20026;-60
2022/03/28 10:17:44;;;;;;;17.30;9.50;;;;;;;;;;8328417;28;20034;-60
2022/03/28 10:21:45;;;;;;;17.70;9.23;;;;;;;;;;8300058;28;20385;-60
2022/03/28 10:25:47;;;;;;;14.03;8.43;;;;;;;;;;8302122;28;20036;-60
2022/03/28 10:29:48;;;;;;;19.23;9.55;;;;;;;;;;8328959;28;20041;-62
2022/03/28 10:33:50;;;;;;;21.73;8.97;;;;;;;;;;8300716;28;20029;-60
2022/03/28 10:37:53;;;;;;;17.35;9.15;;;;;;;;;;8295957;28;20026;-60
2022/03/28 10:42:04;;;;;;;24.27;9.82;;;;;;;;;;8301582;28;20041;-60
2022/03/28 10:46:09;;;;;;;21.45;10.82;;;;;;;;;;8300616;28;20121;-60
2022/03/28 10:50:12;;;;;;;16.00;10.20;;;;;;;;;;8339970;28;20036;-60
2022/03/28 10:54:12;;;;;;;22.30;10.68;;;;;;;;;;8300796;28;20423;-60
2022/03/28 10:58:15;;;;;;;16.60;9.67;;;;;;;;;;8329374;28;20033;-60
2022/03/28 11:02:29;;;;;;;19.20;10.05;;;;;;;;;;8303632;28;20025;-61
2022/03/28 11:07:01;;;;;;;14.77;8.70;;;;;;;;;;8308879;28;20488;-59
2022/03/28 11:11:12;;;;;;;16.25;8.18;;;;;;;;;;8310364;28;20037;-59
2022/03/28 11:15:15;;;;;;;17.45;9.13;;;;;;;;;;8303482;28;20022;-58
2022/03/28 11:19:20;;;;;;;12.82;8.02;;;;;;;;;;8314091;28;20147;-59
2022/03/28 11:23:22;;;;;;;12.07;8.10;;;;;;;;;;8315317;28;20021;-60
2022/03/28 11:27:23;;;;;;;;;;;;;;;;;;8315998;28;20053;-59
2022/03/28 11:31:24;;;;;;;15.63;8.05;;;;;;;;;;8308570;28;19997;-60
2022/03/28 11:35:28;;;;;;;15.47;8.17;;;;;;;;;;8313223;28;20457;-61
2022/03/28 11:39:31;;;;;;;16.75;7.80;;;;;;;;;;8312009;28;20539;-60
2022/03/28 11:43:37;;;;;;;16.27;9.23;;;;;;;;;;8309000;28;20121;-59
2022/03/28 11:47:39;;;;;;;13.57;8.63;;;;;;;;;;8314729;28;20048;-61
2022/03/28 11:51:41;;;;;;;12.60;8.35;;;;;;;;;;8334811;28;20493;-60
2022/03/28 11:55:42;;;;;;;;;;;;;;;;;;8310404;28;20407;-60
2022/03/28 11:59:43;;;;;;;12.48;8.05;;;;;;;;;;8335418;28;20039;-60
2022/03/28 12:03:50;;;;;;;16.13;8.20;;;;;;;;;;8335205;28;20021;-60
2022/03/28 12:07:52;;;;;;;13.85;7.93;;;;;;;;;;8317987;28;20029;-59
2022/03/28 12:11:54;;;;;;;12.07;7.93;;;;;;;;;;8316550;28;20033;-59
2022/03/28 12:15:56;;;;;;;15.25;8.32;;;;;;;;;;8314388;28;20467;-64
2022/03/28 12:20:01;;;;;;;20.13;7.90;;;;;;;;;;8348738;28;20384;-60
2022/03/28 12:24:05;;;;;;;14.80;7.47;;;;;;;;;;8315018;28;20061;-60
2022/03/28 12:28:11;;;;;;;9.25;6.25;;;;;;;;;;8333714;28;20525;-60
2022/03/28 12:32:16;;;;;;;23.15;9.52;;;;;;;;;;8333202;28;20026;-59
2022/03/28 12:36:24;;;;;;;9.80;6.63;;;;;;;;;;8333038;28;20045;-60
2022/03/28 12:40:26;;;;;;;12.48;7.13;;;;;;;;;;8330001;28;20372;-60
2022/03/28 12:44:27;;;;;;;12.60;8.07;;;;;;;;;;8316148;28;20026;-60
2022/03/28 12:48:40;;;;;;;9.43;6.07;;;;;;;;;;8333777;28;20040;-60
2022/03/28 12:52:43;;;;;;;9.98;6.85;;;;;;;;;;8323399;28;20022;-59
2022/03/28 12:56:49;;;;;;;9.10;6.70;;;;;;;;;;8335449;28;21789;-60
2022/03/28 13:00:49;;;;;;;12.88;7.20;;;;;;;;;;8303543;28;20026;-60
2022/03/28 13:04:53;;;;;;;10.60;6.40;;;;;;;;;;8302198;28;20033;-62
2022/03/28 13:09:02;;;;;;;13.82;6.97;;;;;;;;;;8333169;28;20041;-60
2022/03/28 13:13:04;;;;;;;9.38;5.97;;;;;;;;;;8331963;28;20030;-60
2022/03/28 13:17:04;;;;;;;13.60;6.40;;;;;;;;;;8317481;28;20025;-60
2022/03/28 13:21:14;;;;;;;12.17;5.73;;;;;;;;;;8315700;28;20045;-60
2022/03/28 13:25:17;;;;;;;10.30;5.70;;;;;;;;;;8342273;28;20029;-60
2022/03/28 13:29:18;;;;;;;12.93;5.60;;;;;;;;;;8332195;28;20045;-60
2022/03/28 13:33:20;;;;;;;8.10;5.30;;;;;;;;;;8316370;28;20091;-60
2022/03/28 13:37:20;;;;;;;;;;;;;;;;;;8295672;28;20026;-60
2022/03/28 13:41:21;;;;;;;12.00;5.80;;;;;;;;;;8309293;28;19909;-60
2022/03/28 13:45:23;;;;;;;8.27;4.83;;;;;;;;;;8330947;28;20483;-60
2022/03/28 13:49:24;;;;;;;7.50;4.63;;;;;;;;;;8313107;28;20302;-60
2022/03/28 13:53:25;;;;;;;9.40;3.57;;;;;;;;;;8333726;28;20515;-60
2022/03/28 13:57:26;;;;;;;6.57;4.07;;;;;;;;;;8331703;28;20021;-61
2022/03/28 14:01:28;;;;;;;9.27;4.73;;;;;;;;;;8311062;28;20022;-60
2022/03/28 14:05:29;;;;;;;10.82;4.93;;;;;;;;;;8313279;28;20021;-60
2022/03/28 14:09:30;;;;;;;8.38;5.13;;;;;;;;;;8313527;28;20041;-60
2022/03/28 14:13:31;;;;;;;10.10;5.47;;;;;;;;;;8327855;28;20503;-60
2022/03/28 14:17:33;;;;;;;10.60;6.50;;;;;;;;;;8331104;28;20040;-60
2022/03/28 14:21:34;;;;;;;13.23;6.30;;;;;;;;;;8292969;28;20025;-60
2022/03/28 14:25:35;;;;;;;14.95;6.55;;;;;;;;;;8315523;28;20026;-61
2022/03/28 14:29:36;;;;;;;14.63;6.67;;;;;;;;;;8316709;28;20096;-60
2022/03/28 14:33:38;;;;;;;15.13;6.85;;;;;;;;;;8332123;28;20021;-60
2022/03/28 14:37:39;;;;;;;12.68;6.88;;;;;;;;;;8279156;28;20028;-60
2022/03/28 14:41:41;;;;;;;13.97;8.17;;;;;;;;;;8321259;28;20025;-60
2022/03/28 14:50:08;;;;;;;16.25;7.80;;;;;;;;;;8325481;28;20480;-62
2022/03/28 14:54:09;;;;;;;12.25;7.05;;;;;;;;;;8312190;28;20541;-62
2022/03/28 14:58:10;;;;;;;15.20;7.63;;;;;;;;;;8314722;28;20034;-60
2022/03/28 15:02:11;;;;;;;13.07;7.43;;;;;;;;;;8309269;28;20061;-60
2022/03/28 15:06:14;;;;;;;18.07;7.77;;;;;;;;;;8319213;28;20084;-60
2022/03/28 15:10:15;;;;;;;17.02;7.78;;;;;;;;;;8296064;28;20137;-62
2022/03/28 15:14:17;;;;;;;15.73;7.07;;;;;;;;;;8328987;28;20025;-61
2022/03/28 15:18:18;;;;;;;;;;;;;;;;;;8328790;28;20014;-58
2022/03/28 15:22:19;;;;;;;13.57;7.97;;;;;;;;;;8270587;28;19936;-61
2022/03/28 15:26:20;;;;;;;16.70;9.03;;;;;;;;;;8298057;28;20038;-63
2022/03/28 15:30:21;;;;;;;20.87;8.73;;;;;;;;;;8302912;28;20093;-60
2022/03/28 15:34:24;;;;;;;18.27;8.13;;;;;;;;;;8322333;28;20022;-60
2022/03/28 15:38:25;;;;;;;16.83;8.63;;;;;;;;;;8311964;28;20450;-61
2022/03/28 15:42:26;;;;;;;13.50;7.80;;;;;;;;;;8329574;28;20021;-61
